Archival Weather

Chicago O'Hare International

Chicago, Illinois (KORD)

Report from: Thursday, November 24, 2022 5:51 AM CST
Current time: Sunday, December 4, 2022 7:11 AM CST

Current weather
Weather history
Weather forecast

Temperature2.8°C (37.0°F)
Wind chill0.7°C (33.3°F)
Dew point-0.6°C (30.9°F)
Winds 4 kts (2.1 m/s, 4.6 mph) South-Southeast (150°)
Visibility10 mi. (16.1 km)
Clouds Few clouds 4,000 ft. (1,219 m)
Few clouds 25,000 ft. (7,620 m)
Altimeter30.14 in.Hg (1021 mB)
Relative humidity78 %
Density altitude-1,645 ft. (-501 m)
Sea-level pressure102.1 kPa (1021 mB, 30.15 in.Hg)
Max temp last 6 hours7.8°C (46.0°F)
Min temp last 6 hours2.2°C (36.0°F)
Remarks System requires maintenance
Automated weather observing station with precipitation discriminator
Pressure falling, then rising
Flight conditions Visual Meteorological Conditions
Raw dataKORD 241151Z 15004KT 10SM FEW040 FEW250 03/M01 A3014 RMK AO2 SLP209 T00281006 10078 20022 55001 $
An error has occurred. This application may no longer respond until reloaded. Reload 🗙